Time;durP1;ratioP1;P1;durP2;ratioP2;P2;SDS_P1;SDS_P2;PMS_P1;PMS_P2;Temp;Humidity;BMP_temperature;BMP_pressure;BME280_temperature;BME280_humidity;BME280_pressure;Samples;Min_cycle;Max_cycle;Signal;HPM_P1;HPM_P2
2023/05/03 00:01:09;;;;;;;3.75;2.20;;;;;;;;;;5001626;28;20076;-76
2023/05/03 00:03:36;;;;;;;2.17;1.80;;;;;;;;;;4981040;28;20120;-76
2023/05/03 00:06:08;;;;;;;2.00;1.73;;;;;;;;;;4996134;28;20030;-77
2023/05/03 00:08:33;;;;;;;3.10;1.92;;;;;;;;;;4968678;28;20041;-76
2023/05/03 00:10:59;;;;;;;4.35;1.98;;;;;;;;;;4999636;28;20034;-76
2023/05/03 00:13:24;;;;;;;3.55;1.60;;;;;;;;;;5000860;28;20565;-76
2023/05/03 00:15:50;;;;;;;3.13;1.70;;;;;;;;;;4980745;28;20562;-77
2023/05/03 00:18:15;;;;;;;2.25;1.67;;;;;;;;;;5000636;28;20561;-76
2023/05/03 00:20:41;;;;;;;3.88;1.88;;;;;;;;;;4998548;28;20065;-77
2023/05/03 00:23:07;;;;;;;1.95;1.42;;;;;;;;;;4982901;28;20906;-78
2023/05/03 00:25:32;;;;;;;4.95;1.75;;;;;;;;;;4981875;28;20156;-78
2023/05/03 00:27:58;;;;;;;2.10;1.90;;;;;;;;;;4999683;28;20555;-77
2023/05/03 00:30:24;;;;;;;2.55;1.58;;;;;;;;;;4982235;28;20025;-77
2023/05/03 00:32:50;;;;;;;3.20;1.90;;;;;;;;;;5001067;28;20022;-79
2023/05/03 00:35:15;;;;;;;2.33;1.40;;;;;;;;;;4975949;28;20105;-78
2023/05/03 00:37:41;;;;;;;2.42;1.77;;;;;;;;;;4998334;28;20107;-78
2023/05/03 00:40:07;;;;;;;2.80;1.50;;;;;;;;;;4983515;28;20038;-77
2023/05/03 00:42:33;;;;;;;8.38;2.55;;;;;;;;;;4981057;28;20036;-78
2023/05/03 00:44:58;;;;;;;2.90;1.52;;;;;;;;;;4983151;28;20026;-78
2023/05/03 00:47:23;;;;;;;2.22;1.60;;;;;;;;;;4996702;28;20108;-77
2023/05/03 00:49:49;;;;;;;5.07;2.00;;;;;;;;;;4991168;28;20046;-76
2023/05/03 00:52:15;;;;;;;2.25;1.63;;;;;;;;;;4999773;28;20053;-76
2023/05/03 00:54:40;;;;;;;2.10;1.70;;;;;;;;;;4999007;28;20026;-76
2023/05/03 00:57:06;;;;;;;4.68;2.00;;;;;;;;;;5001224;28;20055;-76
2023/05/03 00:59:33;;;;;;;7.35;1.55;;;;;;;;;;4983728;28;20033;-78
2023/05/03 01:01:58;;;;;;;1.63;1.45;;;;;;;;;;4987572;28;20042;-79
2023/05/03 01:04:23;;;;;;;3.25;1.70;;;;;;;;;;4986013;28;20017;-77
2023/05/03 01:06:49;;;;;;;5.88;1.85;;;;;;;;;;4976204;28;20109;-77
2023/05/03 01:09:44;;;;;;;2.20;1.70;;;;;;;;;;4986023;28;20103;-78
2023/05/03 01:12:15;;;;;;;2.20;1.80;;;;;;;;;;4968001;28;20072;-78
2023/05/03 01:14:55;;;;;;;2.95;1.70;;;;;;;;;;4986758;28;20567;-77
2023/05/03 01:17:26;;;;;;;4.40;1.70;;;;;;;;;;5002471;28;20070;-77
2023/05/03 01:19:55;;;;;;;4.07;1.90;;;;;;;;;;4987532;28;20124;-77
2023/05/03 01:22:26;;;;;;;3.60;1.80;;;;;;;;;;4983286;28;20045;-77
2023/05/03 01:25:00;;;;;;;2.20;2.00;;;;;;;;;;5000696;28;20500;-77
2023/05/03 01:27:25;;;;;;;3.17;1.85;;;;;;;;;;5004371;28;20495;-77
2023/05/03 01:29:51;;;;;;;2.30;1.73;;;;;;;;;;5001361;28;20112;-76
2023/05/03 01:32:20;;;;;;;2.60;1.88;;;;;;;;;;5003717;28;20033;-76
2023/05/03 01:34:46;;;;;;;2.30;1.48;;;;;;;;;;5001827;28;20088;-76
2023/05/03 01:37:12;;;;;;;3.65;1.60;;;;;;;;;;4985740;28;20038;-77
2023/05/03 01:39:37;;;;;;;3.03;1.70;;;;;;;;;;4984811;28;20018;-77
2023/05/03 01:42:04;;;;;;;3.40;1.98;;;;;;;;;;5003535;28;20045;-76
2023/05/03 01:44:29;;;;;;;2.65;2.15;;;;;;;;;;5002883;28;20018;-76
2023/05/03 01:46:55;;;;;;;2.28;2.00;;;;;;;;;;5001973;28;20022;-76
2023/05/03 01:49:21;;;;;;;3.05;1.70;;;;;;;;;;5002928;28;20060;-76
2023/05/03 01:51:46;;;;;;;5.75;1.70;;;;;;;;;;4984184;28;20018;-76
2023/05/03 01:54:11;;;;;;;4.07;1.85;;;;;;;;;;4985826;28;20028;-77
2023/05/03 01:56:37;;;;;;;5.53;1.92;;;;;;;;;;4983698;28;20026;-75
2023/05/03 01:59:02;;;;;;;3.50;2.22;;;;;;;;;;5003909;28;20025;-77
2023/05/03 02:01:28;;;;;;;3.85;2.08;;;;;;;;;;4983993;28;20046;-77
2023/05/03 02:03:53;;;;;;;2.58;1.88;;;;;;;;;;5003349;28;20450;-76
2023/05/03 02:06:18;;;;;;;3.20;1.80;;;;;;;;;;5003286;28;20052;-77
2023/05/03 02:08:43;;;;;;;3.90;1.83;;;;;;;;;;4984062;28;20026;-77
2023/05/03 02:11:09;;;;;;;2.28;1.70;;;;;;;;;;5003728;28;20028;-77
2023/05/03 02:13:36;;;;;;;2.85;1.80;;;;;;;;;;4982806;28;20045;-77
2023/05/03 02:16:01;;;;;;;2.42;1.60;;;;;;;;;;4984090;28;20034;-77
2023/05/03 02:18:30;;;;;;;3.60;2.30;;;;;;;;;;5003002;28;20021;-78
2023/05/03 02:20:56;;;;;;;3.17;2.00;;;;;;;;;;4990219;28;20044;-79
2023/05/03 02:23:22;;;;;;;3.45;1.90;;;;;;;;;;4985156;28;20093;-77
2023/05/03 02:25:48;;;;;;;2.25;1.80;;;;;;;;;;4985980;28;20064;-77
2023/05/03 02:28:13;;;;;;;5.30;2.30;;;;;;;;;;4985742;28;20030;-78
2023/05/03 02:30:39;;;;;;;4.18;2.20;;;;;;;;;;4985199;28;20549;-77
2023/05/03 02:33:04;;;;;;;2.10;1.80;;;;;;;;;;4986891;28;20036;-77
2023/05/03 02:35:29;;;;;;;4.32;2.00;;;;;;;;;;4983247;28;20048;-77
2023/05/03 02:37:55;;;;;;;4.65;1.58;;;;;;;;;;4984361;28;20077;-78
2023/05/03 02:40:21;;;;;;;2.58;1.67;;;;;;;;;;4982807;28;20010;-77
2023/05/03 02:42:46;;;;;;;3.50;1.97;;;;;;;;;;4986540;28;20053;-77
2023/05/03 02:45:11;;;;;;;3.35;2.10;;;;;;;;;;4983318;28;20261;-77
2023/05/03 02:47:36;;;;;;;1.73;1.23;;;;;;;;;;4984917;28;20091;-77
2023/05/03 02:50:02;;;;;;;3.45;2.08;;;;;;;;;;5000286;28;20042;-75
2023/05/03 02:52:28;;;;;;;3.15;1.88;;;;;;;;;;5001108;28;20036;-74
2023/05/03 02:54:53;;;;;;;5.20;1.92;;;;;;;;;;4983912;28;20108;-76
2023/05/03 02:57:18;;;;;;;4.30;2.05;;;;;;;;;;4996650;28;20033;-76
2023/05/03 02:59:44;;;;;;;3.88;1.90;;;;;;;;;;4997771;28;20076;-76
2023/05/03 03:02:09;;;;;;;2.95;2.20;;;;;;;;;;4998580;28;20463;-76
2023/05/03 03:04:34;;;;;;;3.00;1.88;;;;;;;;;;4997987;28;20030;-75
2023/05/03 03:07:00;;;;;;;3.78;1.90;;;;;;;;;;4981079;28;20040;-75
2023/05/03 03:09:25;;;;;;;3.08;2.13;;;;;;;;;;4978954;28;20033;-75
2023/05/03 03:11:51;;;;;;;1.80;1.65;;;;;;;;;;4979303;28;20026;-76
2023/05/03 03:14:16;;;;;;;3.65;2.13;;;;;;;;;;4989197;28;20548;-76
2023/05/03 03:16:42;;;;;;;4.15;1.95;;;;;;;;;;4985778;28;20092;-76
2023/05/03 03:19:07;;;;;;;4.82;2.05;;;;;;;;;;4990157;28;20036;-75
2023/05/03 03:21:34;;;;;;;2.67;1.75;;;;;;;;;;4982095;28;20109;-76
2023/05/03 03:24:00;;;;;;;4.97;1.83;;;;;;;;;;4980200;28;20859;-75
2023/05/03 03:26:25;;;;;;;3.13;2.00;;;;;;;;;;4964391;28;20038;-76
2023/05/03 03:28:50;;;;;;;3.35;1.90;;;;;;;;;;4972162;28;20030;-76
2023/05/03 03:31:17;;;;;;;4.22;2.13;;;;;;;;;;5001280;28;20018;-75
2023/05/03 03:33:43;;;;;;;2.92;2.35;;;;;;;;;;4998676;28;20045;-75
2023/05/03 03:36:09;;;;;;;3.40;1.77;;;;;;;;;;4975473;28;20073;-75
2023/05/03 03:38:34;;;;;;;5.63;2.38;;;;;;;;;;4991865;28;20468;-76
2023/05/03 03:41:00;;;;;;;2.65;1.83;;;;;;;;;;4998023;28;20038;-76
2023/05/03 03:43:25;;;;;;;3.00;1.52;;;;;;;;;;5001134;28;20721;-76
2023/05/03 03:45:51;;;;;;;6.32;2.28;;;;;;;;;;4998044;28;20030;-76
2023/05/03 03:48:16;;;;;;;2.45;2.10;;;;;;;;;;4983089;28;20828;-76
2023/05/03 03:50:41;;;;;;;3.00;2.05;;;;;;;;;;4999773;28;20049;-76
2023/05/03 03:53:09;;;;;;;2.65;1.92;;;;;;;;;;5000694;28;20076;-76
2023/05/03 03:55:35;;;;;;;4.05;1.88;;;;;;;;;;5000677;28;20100;-75
2023/05/03 03:58:00;;;;;;;4.43;2.13;;;;;;;;;;4981607;28;20121;-76
2023/05/03 04:00:25;;;;;;;5.40;2.20;;;;;;;;;;4974357;28;20080;-76
2023/05/03 04:02:51;;;;;;;2.30;2.05;;;;;;;;;;4993568;28;20111;-76
2023/05/03 04:05:16;;;;;;;3.67;1.95;;;;;;;;;;4999838;28;20025;-76
2023/05/03 04:07:41;;;;;;;2.65;1.80;;;;;;;;;;4979937;28;20022;-75
2023/05/03 04:10:07;;;;;;;5.05;2.20;;;;;;;;;;4999766;28;20041;-76
2023/05/03 04:12:32;;;;;;;4.93;2.92;;;;;;;;;;4998228;28;20569;-75
2023/05/03 04:14:58;;;;;;;3.50;1.90;;;;;;;;;;4981591;28;20292;-76
2023/05/03 04:17:23;;;;;;;2.78;1.98;;;;;;;;;;5000094;28;20274;-76
2023/05/03 04:19:48;;;;;;;2.17;1.98;;;;;;;;;;4997578;28;20017;-76
2023/05/03 04:22:14;;;;;;;2.75;2.08;;;;;;;;;;4980910;28;20124;-76
2023/05/03 04:24:39;;;;;;;3.20;2.13;;;;;;;;;;4979164;28;20113;-76
2023/05/03 04:27:04;;;;;;;4.03;2.10;;;;;;;;;;4999456;28;20105;-76
2023/05/03 04:29:30;;;;;;;4.07;2.30;;;;;;;;;;4998593;28;20231;-76
2023/05/03 04:31:55;;;;;;;2.83;2.13;;;;;;;;;;4982935;28;20076;-76
2023/05/03 04:34:21;;;;;;;3.10;2.17;;;;;;;;;;5003441;28;20117;-76
2023/05/03 04:36:46;;;;;;;4.85;2.35;;;;;;;;;;5003611;28;20469;-76
2023/05/03 04:39:12;;;;;;;2.97;1.80;;;;;;;;;;4986665;28;20037;-76
2023/05/03 04:41:39;;;;;;;2.17;1.98;;;;;;;;;;4984994;28;20030;-76
2023/05/03 04:44:04;;;;;;;4.55;2.00;;;;;;;;;;5004575;28;20030;-77
2023/05/03 04:46:30;;;;;;;5.35;2.13;;;;;;;;;;5002687;28;20032;-77
2023/05/03 04:48:56;;;;;;;3.55;2.33;;;;;;;;;;5004153;28;20057;-76
2023/05/03 04:51:22;;;;;;;2.40;1.95;;;;;;;;;;5002254;28;20037;-76
2023/05/03 04:53:47;;;;;;;1.95;1.75;;;;;;;;;;4992439;28;20251;-76
2023/05/03 04:56:13;;;;;;;2.67;1.98;;;;;;;;;;5002682;28;20474;-76
2023/05/03 04:58:38;;;;;;;2.65;2.40;;;;;;;;;;5002840;28;20022;-77
2023/05/03 05:01:03;;;;;;;2.30;2.10;;;;;;;;;;5003485;28;20111;-76
2023/05/03 05:03:30;;;;;;;2.50;2.20;;;;;;;;;;4984886;28;20805;-76
2023/05/03 05:05:55;;;;;;;3.50;1.83;;;;;;;;;;5004084;28;20030;-76
2023/05/03 05:08:21;;;;;;;5.05;2.40;;;;;;;;;;5001778;28;20037;-76
2023/05/03 05:10:46;;;;;;;4.18;2.85;;;;;;;;;;5003722;28;20025;-76
2023/05/03 05:13:12;;;;;;;5.40;4.15;;;;;;;;;;4985104;28;20382;-76
2023/05/03 05:15:37;;;;;;;4.78;3.65;;;;;;;;;;5003051;28;20018;-76
2023/05/03 05:18:02;;;;;;;9.50;8.32;;;;;;;;;;4985487;28;20105;-76
2023/05/03 05:20:28;;;;;;;6.80;4.38;;;;;;;;;;4984195;28;20030;-75
2023/05/03 05:22:53;;;;;;;7.05;4.40;;;;;;;;;;4986441;28;20656;-76
2023/05/03 05:25:18;;;;;;;7.10;2.55;;;;;;;;;;4983894;28;20504;-74
2023/05/03 05:27:44;;;;;;;8.57;2.45;;;;;;;;;;5002933;28;20056;-76
2023/05/03 05:30:09;;;;;;;2.55;2.35;;;;;;;;;;4984338;28;20040;-77
2023/05/03 05:32:34;;;;;;;5.82;2.58;;;;;;;;;;4985986;28;20521;-76
2023/05/03 05:34:59;;;;;;;4.13;3.03;;;;;;;;;;5002558;28;20562;-77
2023/05/03 05:37:26;;;;;;;3.17;2.50;;;;;;;;;;5001545;28;20026;-76
2023/05/03 05:39:51;;;;;;;5.50;2.45;;;;;;;;;;5003133;28;20022;-76
2023/05/03 05:42:18;;;;;;;2.60;2.40;;;;;;;;;;5002243;28;20061;-79
2023/05/03 05:44:43;;;;;;;3.17;2.88;;;;;;;;;;5003060;28;20026;-76
2023/05/03 05:47:09;;;;;;;3.10;2.63;;;;;;;;;;4984342;28;20569;-77
2023/05/03 05:49:35;;;;;;;5.60;2.95;;;;;;;;;;5003536;28;20057;-76
2023/05/03 05:52:00;;;;;;;4.20;2.28;;;;;;;;;;5000606;28;20491;-75
2023/05/03 05:54:26;;;;;;;4.40;2.67;;;;;;;;;;4984205;28;20088;-74
2023/05/03 05:56:51;;;;;;;5.57;2.65;;;;;;;;;;4981689;28;20026;-75
2023/05/03 05:59:16;;;;;;;4.65;2.55;;;;;;;;;;4981953;28;20029;-74
2023/05/03 06:01:44;;;;;;;3.00;2.53;;;;;;;;;;5002493;28;20038;-75
2023/05/03 06:04:10;;;;;;;4.22;3.70;;;;;;;;;;4981916;28;20025;-75
2023/05/03 06:06:35;;;;;;;5.13;3.47;;;;;;;;;;4998714;28;20088;-74
2023/05/03 06:09:01;;;;;;;8.18;3.72;;;;;;;;;;4999125;28;20474;-74
2023/05/03 06:11:26;;;;;;;5.93;3.35;;;;;;;;;;4981742;28;20112;-74
2023/05/03 06:13:52;;;;;;;5.70;4.80;;;;;;;;;;4976980;28;20032;-74
2023/05/03 06:16:17;;;;;;;4.72;3.30;;;;;;;;;;4984046;28;20128;-74
2023/05/03 06:18:42;;;;;;;4.40;2.92;;;;;;;;;;4983566;28;20097;-75
2023/05/03 06:21:09;;;;;;;3.15;2.63;;;;;;;;;;4982457;28;20061;-77
2023/05/03 06:23:36;;;;;;;5.15;2.97;;;;;;;;;;4984364;28;20030;-75
2023/05/03 06:26:02;;;;;;;4.55;3.00;;;;;;;;;;4993817;28;20026;-75
2023/05/03 06:28:27;;;;;;;5.68;3.88;;;;;;;;;;5002083;28;20025;-76
2023/05/03 06:30:52;;;;;;;4.07;3.30;;;;;;;;;;4982528;28;20072;-75
2023/05/03 06:33:17;;;;;;;4.07;2.80;;;;;;;;;;5001321;28;20767;-76
2023/05/03 06:35:45;;;;;;;9.50;4.50;;;;;;;;;;4978027;28;20407;-74
2023/05/03 06:38:11;;;;;;;3.75;2.92;;;;;;;;;;4995937;28;20141;-74
2023/05/03 06:40:37;;;;;;;4.32;3.20;;;;;;;;;;4974402;28;20101;-75
2023/05/03 06:43:02;;;;;;;5.18;3.17;;;;;;;;;;4968027;28;20443;-77
2023/05/03 06:45:28;;;;;;;8.07;3.33;;;;;;;;;;4976485;28;20030;-76
2023/05/03 06:47:53;;;;;;;6.60;3.15;;;;;;;;;;4989368;28;20342;-75
2023/05/03 06:50:19;;;;;;;5.90;3.30;;;;;;;;;;4973796;28;20061;-76
2023/05/03 06:52:45;;;;;;;6.07;3.25;;;;;;;;;;4969594;28;20415;-76
2023/05/03 06:55:10;;;;;;;5.15;2.97;;;;;;;;;;4988099;28;20068;-75
2023/05/03 06:57:38;;;;;;;5.50;2.58;;;;;;;;;;4971577;28;20475;-75
2023/05/03 07:00:06;;;;;;;3.13;2.50;;;;;;;;;;4985678;28;20085;-75
2023/05/03 07:02:31;;;;;;;4.50;2.60;;;;;;;;;;4972513;28;20125;-76
2023/05/03 07:04:57;;;;;;;3.97;2.50;;;;;;;;;;4978396;28;20109;-76
2023/05/03 07:07:22;;;;;;;3.15;2.83;;;;;;;;;;4996642;28;20035;-76
2023/05/03 07:09:47;;;;;;;4.18;2.40;;;;;;;;;;4977224;28;20022;-76
2023/05/03 07:12:13;;;;;;;3.25;2.80;;;;;;;;;;4968146;28;20178;-76
2023/05/03 07:14:39;;;;;;;3.60;3.27;;;;;;;;;;4987803;28;20462;-76
2023/05/03 07:17:04;;;;;;;3.67;2.50;;;;;;;;;;4984607;28;20292;-77
2023/05/03 07:19:29;;;;;;;5.47;3.17;;;;;;;;;;4971223;28;20049;-75
2023/05/03 07:21:56;;;;;;;4.70;2.80;;;;;;;;;;4983575;28;20038;-76
2023/05/03 07:24:23;;;;;;;3.58;3.10;;;;;;;;;;4987467;28;20038;-75
2023/05/03 07:26:49;;;;;;;3.70;3.40;;;;;;;;;;4990602;28;20120;-76
2023/05/03 07:29:14;;;;;;;3.55;2.65;;;;;;;;;;4988748;28;20097;-76
2023/05/03 07:31:40;;;;;;;4.27;3.70;;;;;;;;;;4974786;28;20060;-76
2023/05/03 07:34:06;;;;;;;5.30;3.70;;;;;;;;;;4968139;28;20277;-76
2023/05/03 07:36:31;;;;;;;4.13;3.13;;;;;;;;;;4984777;28;20018;-75
2023/05/03 07:38:56;;;;;;;2.78;2.58;;;;;;;;;;4990238;28;20029;-75
2023/05/03 07:41:23;;;;;;;3.88;2.50;;;;;;;;;;4998863;28;20034;-76
2023/05/03 07:43:49;;;;;;;3.55;2.55;;;;;;;;;;4985659;28;20056;-75
2023/05/03 07:46:15;;;;;;;3.15;2.78;;;;;;;;;;4991825;28;20495;-75
2023/05/03 07:48:40;;;;;;;4.40;2.72;;;;;;;;;;4986862;28;20054;-75
2023/05/03 07:51:05;;;;;;;3.10;2.33;;;;;;;;;;4991748;28;20030;-76
2023/05/03 07:53:34;;;;;;;3.92;2.65;;;;;;;;;;4999427;28;20321;-75
2023/05/03 07:55:59;;;;;;;3.67;2.47;;;;;;;;;;4998517;28;20453;-75
2023/05/03 07:58:24;;;;;;;7.07;4.28;;;;;;;;;;4998299;28;20052;-76
2023/05/03 08:00:51;;;;;;;3.43;2.77;;;;;;;;;;4996439;28;20510;-75
2023/05/03 08:03:17;;;;;;;4.80;4.25;;;;;;;;;;4984638;28;20296;-75
2023/05/03 08:05:42;;;;;;;4.63;3.45;;;;;;;;;;4987350;28;20017;-75
2023/05/03 08:08:08;;;;;;;6.72;2.83;;;;;;;;;;4995583;28;20024;-75
2023/05/03 08:10:36;;;;;;;3.42;2.92;;;;;;;;;;4986947;28;20053;-76
2023/05/03 08:13:02;;;;;;;5.88;4.45;;;;;;;;;;4969954;28;20033;-75
2023/05/03 08:15:27;;;;;;;5.18;2.80;;;;;;;;;;4969160;28;20033;-75
2023/05/03 08:17:52;;;;;;;3.67;3.33;;;;;;;;;;4995829;28;20053;-75
2023/05/03 08:20:18;;;;;;;3.28;2.88;;;;;;;;;;4997798;28;20016;-74
2023/05/03 08:22:45;;;;;;;3.17;2.80;;;;;;;;;;4996034;28;20033;-75
2023/05/03 08:25:11;;;;;;;3.72;2.50;;;;;;;;;;4996704;28;20093;-76
2023/05/03 08:27:37;;;;;;;3.15;2.40;;;;;;;;;;4977939;28;20116;-76
2023/05/03 08:30:02;;;;;;;2.45;2.25;;;;;;;;;;4973543;28;20116;-75
2023/05/03 08:32:28;;;;;;;5.80;2.30;;;;;;;;;;4993227;28;20025;-76
2023/05/03 08:34:54;;;;;;;2.40;2.20;;;;;;;;;;4996458;28;20022;-76
2023/05/03 08:37:20;;;;;;;3.65;2.20;;;;;;;;;;4981390;28;20025;-77
2023/05/03 08:39:46;;;;;;;4.55;2.50;;;;;;;;;;4998209;28;20056;-76
2023/05/03 08:42:11;;;;;;;2.85;2.65;;;;;;;;;;4999283;28;20488;-76
2023/05/03 08:44:43;;;;;;;3.42;2.38;;;;;;;;;;4998180;28;20029;-78
2023/05/03 08:47:08;;;;;;;3.25;2.40;;;;;;;;;;4999394;28;20037;-77
2023/05/03 08:49:34;;;;;;;6.18;2.38;;;;;;;;;;4979978;28;20129;-78
2023/05/03 08:52:01;;;;;;;3.85;2.70;;;;;;;;;;4981143;28;20022;-76
2023/05/03 08:54:26;;;;;;;5.53;2.30;;;;;;;;;;4997185;28;20018;-76
2023/05/03 08:56:51;;;;;;;2.50;2.30;;;;;;;;;;4998712;28;20021;-76
2023/05/03 08:59:17;;;;;;;4.78;2.30;;;;;;;;;;4997223;28;20029;-75
2023/05/03 09:01:42;;;;;;;2.78;2.15;;;;;;;;;;4997581;28;20030;-76
2023/05/03 09:04:08;;;;;;;6.85;2.67;;;;;;;;;;4999275;28;20034;-76
2023/05/03 09:06:34;;;;;;;5.78;2.53;;;;;;;;;;4998046;28;20140;-75
2023/05/03 09:09:00;;;;;;;2.80;1.95;;;;;;;;;;4999640;28;20030;-75
2023/05/03 09:11:26;;;;;;;2.95;2.63;;;;;;;;;;4998242;28;20471;-75
2023/05/03 09:13:52;;;;;;;3.38;2.00;;;;;;;;;;4980555;28;20113;-75
2023/05/03 09:16:27;;;;;;;3.10;2.20;;;;;;;;;;4981375;28;20518;-76
2023/05/03 09:18:56;;;;;;;4.18;2.40;;;;;;;;;;4999961;28;20102;-75
2023/05/03 09:21:21;;;;;;;2.22;2.00;;;;;;;;;;5003039;28;20501;-75
2023/05/03 09:23:47;;;;;;;2.72;2.17;;;;;;;;;;4983553;28;20533;-75
2023/05/03 09:26:26;;;;;;;3.47;2.17;;;;;;;;;;4983341;28;20858;-75
2023/05/03 09:28:51;;;;;;;1.77;1.67;;;;;;;;;;4982649;28;20860;-75
2023/05/03 09:31:17;;;;;;;3.23;1.77;;;;;;;;;;5000397;28;20026;-76
2023/05/03 09:33:42;;;;;;;2.90;1.95;;;;;;;;;;5000991;28;20793;-75
2023/05/03 09:36:08;;;;;;;4.38;2.00;;;;;;;;;;4999745;28;20493;-75
2023/05/03 09:38:35;;;;;;;2.50;2.22;;;;;;;;;;5002031;28;20013;-77
2023/05/03 09:41:00;;;;;;;2.92;2.72;;;;;;;;;;4998889;28;20462;-76
2023/05/03 09:43:26;;;;;;;2.42;2.15;;;;;;;;;;5000551;28;20022;-75
2023/05/03 09:45:51;;;;;;;3.22;2.60;;;;;;;;;;4999240;28;20491;-75
2023/05/03 09:48:19;;;;;;;3.20;2.25;;;;;;;;;;5000621;28;20776;-75
2023/05/03 09:50:45;;;;;;;2.30;2.10;;;;;;;;;;4982460;28;20041;-75
2023/05/03 09:53:10;;;;;;;3.80;2.10;;;;;;;;;;4999575;28;20377;-78
2023/05/03 09:55:36;;;;;;;4.15;2.60;;;;;;;;;;4983104;28;20440;-75
2023/05/03 09:58:05;;;;;;;2.83;2.53;;;;;;;;;;4999447;28;20025;-74
2023/05/03 10:00:33;;;;;;;3.00;2.40;;;;;;;;;;5001832;28;20020;-75
2023/05/03 10:03:00;;;;;;;4.18;1.98;;;;;;;;;;4983362;28;20284;-75
2023/05/03 10:05:26;;;;;;;4.15;2.45;;;;;;;;;;4983321;28;20028;-74
2023/05/03 10:07:52;;;;;;;2.30;2.10;;;;;;;;;;4992396;28;20029;-74
2023/05/03 10:10:18;;;;;;;2.55;2.30;;;;;;;;;;4974284;28;20021;-74
2023/05/03 10:12:44;;;;;;;2.40;2.20;;;;;;;;;;4976833;28;20072;-74
2023/05/03 10:15:10;;;;;;;6.55;2.80;;;;;;;;;;4974863;28;20084;-74
2023/05/03 10:17:37;;;;;;;6.38;2.30;;;;;;;;;;4993700;28;20496;-73
2023/05/03 10:20:06;;;;;;;5.18;2.33;;;;;;;;;;4997153;28;20033;-73
2023/05/03 10:22:31;;;;;;;2.47;2.20;;;;;;;;;;4997936;28;20510;-73
2023/05/03 10:25:00;;;;;;;2.67;2.23;;;;;;;;;;4990505;28;20038;-76
2023/05/03 10:27:40;;;;;;;2.88;2.55;;;;;;;;;;4983380;28;20316;-73
2023/05/03 10:30:06;;;;;;;4.28;2.20;;;;;;;;;;4985587;28;20109;-77
2023/05/03 10:32:41;;;;;;;2.33;2.22;;;;;;;;;;4970525;28;20022;-75
2023/05/03 10:35:08;;;;;;;2.65;2.45;;;;;;;;;;4996097;28;20696;-73
2023/05/03 10:37:35;;;;;;;3.88;2.33;;;;;;;;;;4970842;28;20639;-73
2023/05/03 10:40:08;;;;;;;3.38;2.30;;;;;;;;;;4974933;28;20053;-76
2023/05/03 10:42:34;;;;;;;2.40;2.20;;;;;;;;;;4988668;28;20470;-74
2023/05/03 10:45:00;;;;;;;3.35;2.65;;;;;;;;;;4981029;28;20172;-74
2023/05/03 10:47:26;;;;;;;4.18;2.72;;;;;;;;;;4999313;28;20026;-76
2023/05/03 10:50:09;;;;;;;4.15;2.60;;;;;;;;;;4998284;28;20434;-77
2023/05/03 10:52:35;;;;;;;3.15;2.20;;;;;;;;;;4984119;28;20030;-77
2023/05/03 10:55:10;;;;;;;2.42;2.22;;;;;;;;;;4992583;28;20456;-79
2023/05/03 10:57:36;;;;;;;3.63;2.55;;;;;;;;;;4983361;28;20029;-77
2023/05/03 11:00:07;;;;;;;2.55;2.35;;;;;;;;;;4971229;28;20019;-74
2023/05/03 11:02:35;;;;;;;2.38;2.15;;;;;;;;;;4982399;28;20029;-74
2023/05/03 11:05:03;;;;;;;2.95;2.75;;;;;;;;;;5001259;28;20072;-76
2023/05/03 11:07:29;;;;;;;4.45;2.92;;;;;;;;;;4981905;28;20067;-76
2023/05/03 11:09:55;;;;;;;4.55;2.70;;;;;;;;;;5001234;28;20109;-76
2023/05/03 11:12:20;;;;;;;3.05;2.75;;;;;;;;;;4998338;28;20037;-73
2023/05/03 11:14:45;;;;;;;6.00;3.47;;;;;;;;;;4997807;28;20022;-76
2023/05/03 11:17:11;;;;;;;4.35;2.92;;;;;;;;;;4989910;28;20026;-74
2023/05/03 11:19:38;;;;;;;5.20;2.58;;;;;;;;;;4969168;28;20491;-76
2023/05/03 11:22:03;;;;;;;4.88;3.22;;;;;;;;;;4970191;28;20054;-76
2023/05/03 11:24:28;;;;;;;2.88;2.67;;;;;;;;;;4986528;28;20060;-73
2023/05/03 11:26:54;;;;;;;4.75;2.90;;;;;;;;;;4975414;28;20042;-74
2023/05/03 11:29:20;;;;;;;5.63;3.38;;;;;;;;;;4981217;28;20018;-75
2023/05/03 11:31:46;;;;;;;2.90;2.70;;;;;;;;;;4985082;28;20128;-79
2023/05/03 11:34:11;;;;;;;5.63;3.78;;;;;;;;;;5000249;28;20045;-75
2023/05/03 11:36:37;;;;;;;6.28;3.58;;;;;;;;;;5000595;28;20080;-74
2023/05/03 11:39:04;;;;;;;5.25;3.67;;;;;;;;;;4999516;28;20396;-74
2023/05/03 11:41:29;;;;;;;5.40;3.85;;;;;;;;;;4998503;28;20033;-76
2023/05/03 11:43:56;;;;;;;4.70;3.75;;;;;;;;;;5000557;28;20022;-76
2023/05/03 11:46:23;;;;;;;4.72;3.30;;;;;;;;;;4999187;28;20057;-76
2023/05/03 11:48:48;;;;;;;9.43;4.32;;;;;;;;;;5000394;28;20408;-74
2023/05/03 11:51:14;;;;;;;4.90;3.33;;;;;;;;;;4998498;28;20084;-74
2023/05/03 11:53:40;;;;;;;5.60;4.30;;;;;;;;;;5000111;28;20018;-75
2023/05/03 11:56:06;;;;;;;4.32;2.70;;;;;;;;;;4999626;28;20065;-76
2023/05/03 11:58:32;;;;;;;4.90;3.05;;;;;;;;;;4999539;28;20049;-75
2023/05/03 12:00:58;;;;;;;3.15;2.88;;;;;;;;;;4998895;28;20076;-74
2023/05/03 12:03:24;;;;;;;4.60;2.97;;;;;;;;;;4981375;28;20033;-75
2023/05/03 12:05:51;;;;;;;3.35;2.80;;;;;;;;;;4999475;28;20063;-75
2023/05/03 12:08:18;;;;;;;3.55;3.25;;;;;;;;;;4981129;28;20033;-75
2023/05/03 12:10:44;;;;;;;11.65;3.90;;;;;;;;;;4981844;28;20022;-74
2023/05/03 12:13:10;;;;;;;3.05;2.70;;;;;;;;;;4999121;28;20076;-74
2023/05/03 12:15:39;;;;;;;3.08;2.80;;;;;;;;;;4999818;28;20546;-76
2023/05/03 12:18:05;;;;;;;4.13;3.05;;;;;;;;;;4983033;28;20030;-75
2023/05/03 12:20:31;;;;;;;4.40;2.88;;;;;;;;;;5000132;28;20109;-81
2023/05/03 12:23:06;;;;;;;6.25;3.10;;;;;;;;;;5001821;28;20486;-77
2023/05/03 12:25:32;;;;;;;3.40;3.10;;;;;;;;;;4981670;28;20032;-78
2023/05/03 12:27:58;;;;;;;3.55;3.25;;;;;;;;;;5000639;28;20101;-75
2023/05/03 12:30:23;;;;;;;3.55;3.25;;;;;;;;;;4998857;28;20561;-77
2023/05/03 12:32:49;;;;;;;6.28;3.67;;;;;;;;;;5000277;28;20100;-75
2023/05/03 12:35:15;;;;;;;3.83;3.53;;;;;;;;;;5000891;28;20030;-74
2023/05/03 12:37:40;;;;;;;3.78;3.47;;;;;;;;;;4999824;28;20025;-76
2023/05/03 12:40:06;;;;;;;3.75;3.38;;;;;;;;;;4981548;28;20099;-75
2023/05/03 12:42:31;;;;;;;3.35;3.08;;;;;;;;;;4981216;28;20435;-74
2023/05/03 12:44:57;;;;;;;4.20;3.55;;;;;;;;;;4983821;28;20462;-77
2023/05/03 12:47:22;;;;;;;3.30;2.95;;;;;;;;;;4981664;28;20041;-75
2023/05/03 12:49:48;;;;;;;4.22;3.90;;;;;;;;;;5000441;28;20045;-74
2023/05/03 12:52:13;;;;;;;6.40;4.82;;;;;;;;;;4980310;28;20036;-76
2023/05/03 12:54:38;;;;;;;7.07;6.32;;;;;;;;;;5003005;28;20041;-76
2023/05/03 12:57:06;;;;;;;6.85;4.28;;;;;;;;;;5003301;28;20450;-77
2023/05/03 12:59:31;;;;;;;7.63;4.28;;;;;;;;;;5003197;28;20069;-76
2023/05/03 13:01:56;;;;;;;6.93;5.30;;;;;;;;;;4985789;28;20062;-76
2023/05/03 13:04:21;;;;;;;7.30;6.10;;;;;;;;;;5002145;28;20280;-76
2023/05/03 13:06:48;;;;;;;4.45;4.05;;;;;;;;;;5002739;28;20261;-76
2023/05/03 13:09:17;;;;;;;7.65;5.43;;;;;;;;;;4997936;28;20033;-76
2023/05/03 13:11:42;;;;;;;6.43;4.28;;;;;;;;;;4985889;28;20038;-77
2023/05/03 13:14:08;;;;;;;10.00;6.72;;;;;;;;;;4984472;28;20072;-76
2023/05/03 13:16:34;;;;;;;6.82;6.22;;;;;;;;;;4985590;28;20053;-76
2023/05/03 13:19:00;;;;;;;7.38;6.00;;;;;;;;;;4984375;28;20121;-76
2023/05/03 13:21:26;;;;;;;5.38;4.95;;;;;;;;;;4964730;28;20054;-76
2023/05/03 13:23:52;;;;;;;4.43;4.07;;;;;;;;;;4979645;28;20062;-76
2023/05/03 13:26:17;;;;;;;5.95;5.32;;;;;;;;;;4984736;28;20506;-76
2023/05/03 13:28:42;;;;;;;4.45;4.13;;;;;;;;;;5003361;28;20018;-76
2023/05/03 13:31:09;;;;;;;5.63;4.13;;;;;;;;;;5000975;28;20908;-76
2023/05/03 13:33:36;;;;;;;7.63;4.60;;;;;;;;;;5002546;28;20265;-77
2023/05/03 13:36:02;;;;;;;7.28;5.00;;;;;;;;;;4981312;28;20471;-77
2023/05/03 13:38:27;;;;;;;5.15;4.72;;;;;;;;;;4992900;28;20061;-77
2023/05/03 13:40:53;;;;;;;5.85;5.45;;;;;;;;;;4962256;28;20045;-77
2023/05/03 13:43:18;;;;;;;7.13;6.45;;;;;;;;;;4971428;28;20042;-77
2023/05/03 13:45:43;;;;;;;8.30;7.35;;;;;;;;;;4990122;28;20069;-77
2023/05/03 13:48:09;;;;;;;9.30;8.27;;;;;;;;;;4970294;28;20034;-78
2023/05/03 13:50:34;;;;;;;9.90;8.38;;;;;;;;;;4988929;28;20030;-78
2023/05/03 13:52:59;;;;;;;10.07;8.88;;;;;;;;;;4975004;28;20080;-78
2023/05/03 13:55:25;;;;;;;10.20;9.15;;;;;;;;;;4985190;28;20112;-78
2023/05/03 13:57:50;;;;;;;10.65;9.65;;;;;;;;;;4984141;28;20057;-78
2023/05/03 14:00:16;;;;;;;11.20;10.20;;;;;;;;;;4984912;28;20091;-80
2023/05/03 14:02:41;;;;;;;11.13;10.23;;;;;;;;;;5002325;28;20038;-78
2023/05/03 14:05:07;;;;;;;14.25;9.68;;;;;;;;;;4999347;28;20022;-78
2023/05/03 14:07:32;;;;;;;11.57;10.40;;;;;;;;;;4994699;28;20025;-78
2023/05/03 14:09:58;;;;;;;12.90;11.48;;;;;;;;;;4996707;28;20029;-78
2023/05/03 14:12:25;;;;;;;11.40;10.27;;;;;;;;;;4994721;28;20385;-78
2023/05/03 14:14:50;;;;;;;12.05;10.95;;;;;;;;;;4982690;28;20029;-77
2023/05/03 14:17:15;;;;;;;12.20;11.10;;;;;;;;;;5000437;28;20460;-77
2023/05/03 14:19:41;;;;;;;11.97;10.97;;;;;;;;;;4993863;28;20029;-77
2023/05/03 14:22:07;;;;;;;11.77;10.80;;;;;;;;;;5003211;28;20308;-75
2023/05/03 14:24:32;;;;;;;14.52;13.25;;;;;;;;;;5001988;28;20018;-77
2023/05/03 14:26:58;;;;;;;15.20;13.73;;;;;;;;;;5000328;28;20069;-77
2023/05/03 14:29:24;;;;;;;15.93;12.82;;;;;;;;;;4998866;28;20505;-75
2023/05/03 14:31:49;;;;;;;13.32;12.15;;;;;;;;;;4981172;28;20144;-77
2023/05/03 14:34:15;;;;;;;13.37;12.17;;;;;;;;;;5001957;28;20021;-74